createdAt,value
2022-10-05T00:01:27.001Z,84.17
2022-10-05T00:04:00.385Z,84.83
2022-10-05T00:06:32.550Z,84.50
2022-10-05T00:09:02.169Z,83.93
2022-10-05T00:11:31.059Z,84.23
2022-10-05T00:14:00.655Z,83.31
2022-10-05T00:16:33.262Z,84.46
2022-10-05T00:19:01.368Z,84.99
2022-10-05T00:21:30.408Z,85.51
2022-10-05T00:24:02.364Z,84.97
2022-10-05T00:26:34.233Z,85.01
2022-10-05T00:29:09.879Z,85.38
2022-10-05T00:31:39.346Z,86.09
2022-10-05T00:34:10.170Z,85.50
2022-10-05T00:36:39.330Z,85.11
2022-10-05T00:39:11.477Z,85.52
2022-10-05T00:41:56.940Z,85.22
2022-10-05T00:44:38.170Z,85.30
2022-10-05T00:47:16.178Z,83.93
2022-10-05T00:50:03.975Z,83.71
2022-10-05T00:52:38.192Z,84.44
2022-10-05T00:55:12.365Z,84.76
2022-10-05T00:57:50.160Z,84.56
2022-10-05T01:00:21.725Z,84.42
2022-10-05T01:02:59.784Z,84.12
2022-10-05T01:05:42.833Z,84.26
2022-10-05T01:08:17.522Z,84.35
2022-10-05T01:10:48.353Z,84.37
2022-10-05T01:13:24.384Z,84.10
2022-10-05T01:15:58.415Z,84.53
2022-10-05T01:18:39.223Z,85.15
2022-10-05T01:21:14.882Z,85.18
2022-10-05T01:24:34.613Z,84.52
2022-10-05T01:27:32.349Z,84.52
2022-10-05T01:30:05.871Z,84.20
2022-10-05T01:32:38.047Z,84.46
2022-10-05T01:35:15.422Z,85.20
2022-10-05T01:37:54.797Z,84.53
2022-10-05T01:40:32.366Z,84.80
2022-10-05T01:43:08.573Z,84.72
2022-10-05T01:45:45.207Z,85.00
2022-10-05T01:48:22.125Z,84.48
2022-10-05T01:50:57.612Z,84.16
2022-10-05T01:53:34.084Z,84.57
2022-10-05T01:56:09.171Z,84.84
2022-10-05T01:58:46.000Z,85.17
2022-10-05T02:01:19.543Z,85.02
2022-10-05T02:03:51.356Z,85.39
2022-10-05T02:06:25.662Z,85.55
2022-10-05T02:09:00.399Z,84.55
2022-10-05T02:11:30.576Z,85.13
2022-10-05T02:14:04.074Z,84.80
2022-10-05T02:16:37.575Z,85.32
2022-10-05T02:19:14.732Z,85.07
2022-10-05T02:21:47.538Z,85.90
2022-10-05T02:24:22.635Z,85.79
2022-10-05T02:26:52.968Z,85.76
2022-10-05T02:29:27.758Z,85.93
2022-10-05T02:32:03.394Z,85.99
2022-10-05T02:34:38.139Z,85.73
2022-10-05T02:37:25.552Z,85.83
2022-10-05T02:40:09.171Z,85.27
2022-10-05T02:42:48.589Z,86.03
2022-10-05T02:45:28.338Z,85.86
2022-10-05T02:48:05.357Z,84.83
2022-10-05T02:50:38.751Z,85.10
2022-10-05T02:53:17.386Z,84.84
2022-10-05T02:55:52.450Z,85.24
2022-10-05T02:58:25.542Z,85.59
2022-10-05T03:01:01.562Z,85.19
2022-10-05T03:03:36.446Z,85.39
2022-10-05T03:06:07.468Z,85.20
2022-10-05T03:08:38.742Z,85.08
2022-10-05T03:11:15.756Z,84.84
2022-10-05T03:13:48.695Z,84.40
2022-10-05T03:16:37.406Z,84.48
2022-10-05T03:19:15.158Z,84.30
2022-10-05T03:21:54.430Z,84.92
2022-10-05T03:24:39.503Z,84.96
2022-10-05T03:27:16.368Z,84.88
2022-10-05T03:29:48.792Z,85.15
2022-10-05T03:32:22.744Z,84.24
2022-10-05T03:34:56.890Z,84.54
2022-10-05T03:37:29.400Z,84.07
2022-10-05T03:40:01.575Z,85.08
2022-10-05T03:42:36.303Z,85.36
2022-10-05T03:45:10.743Z,84.86
2022-10-05T03:47:52.421Z,85.22
2022-10-05T03:50:30.715Z,85.26
2022-10-05T03:53:02.553Z,84.40
2022-10-05T03:55:39.484Z,84.60
2022-10-05T03:58:15.001Z,84.73
2022-10-05T04:00:46.796Z,85.13
2022-10-05T04:03:22.729Z,84.43
2022-10-05T04:05:55.416Z,84.56
2022-10-05T04:08:29.696Z,84.32
2022-10-05T04:10:59.281Z,84.22
2022-10-05T04:13:33.058Z,84.94
2022-10-05T04:16:06.867Z,84.24
2022-10-05T04:18:40.833Z,84.17
2022-10-05T04:21:12.579Z,83.26
2022-10-05T04:23:46.614Z,83.27
2022-10-05T04:26:19.092Z,83.44
2022-10-05T04:28:57.606Z,83.48
2022-10-05T04:31:46.022Z,82.97
2022-10-05T04:34:30.625Z,83.52
2022-10-05T04:37:03.840Z,84.33
2022-10-05T04:39:38.739Z,83.52
2022-10-05T04:42:12.780Z,83.67
2022-10-05T04:45:02.521Z,83.68
2022-10-05T04:47:49.871Z,84.22
2022-10-05T04:50:34.795Z,84.10
2022-10-05T04:53:17.754Z,83.71
2022-10-05T04:55:56.486Z,84.34
2022-10-05T04:58:48.883Z,84.47
2022-10-05T05:01:31.342Z,84.17
2022-10-05T05:04:16.330Z,83.86
2022-10-05T05:06:52.526Z,84.30
2022-10-05T05:09:38.509Z,84.47
2022-10-05T05:12:18.710Z,84.63
2022-10-05T05:15:20.089Z,84.07
2022-10-05T05:18:17.227Z,83.44
2022-10-05T05:20:55.145Z,83.49
2022-10-05T05:23:28.955Z,83.90
2022-10-05T05:26:03.980Z,83.98
2022-10-05T05:28:39.976Z,83.00
2022-10-05T05:31:13.807Z,84.16
2022-10-05T05:33:50.994Z,83.33
2022-10-05T05:36:27.601Z,83.35
2022-10-05T05:39:15.310Z,83.17
2022-10-05T05:41:53.332Z,83.31
2022-10-05T05:44:25.548Z,82.41
2022-10-05T05:47:05.059Z,82.09
2022-10-05T05:49:53.028Z,82.25
2022-10-05T05:52:26.923Z,82.80
2022-10-05T05:55:00.658Z,83.25
2022-10-05T05:57:35.307Z,82.85
2022-10-05T06:00:07.644Z,81.94
2022-10-05T06:02:45.683Z,81.57
2022-10-05T06:05:27.451Z,81.73
2022-10-05T06:07:58.780Z,82.64
2022-10-05T06:10:34.073Z,82.26
2022-10-05T06:13:08.674Z,82.35
2022-10-05T06:15:42.026Z,82.44
2022-10-05T06:18:12.147Z,82.46
2022-10-05T06:20:51.756Z,82.72
2022-10-05T06:23:27.618Z,82.11
2022-10-05T06:26:10.983Z,82.08
2022-10-05T06:28:41.156Z,81.33
2022-10-05T06:31:19.760Z,80.80
2022-10-05T06:33:55.926Z,81.16
2022-10-05T06:36:50.644Z,80.50
2022-10-05T06:40:00.882Z,79.84
2022-10-05T06:42:57.864Z,78.87
2022-10-05T06:46:01.525Z,79.39
2022-10-05T06:49:17.191Z,80.18
2022-10-05T06:52:10.852Z,80.37
2022-10-05T06:54:55.702Z,79.41
2022-10-05T06:58:00.111Z,78.82
2022-10-05T07:00:32.175Z,79.04
2022-10-05T07:03:06.424Z,78.41
2022-10-05T07:05:56.347Z,78.35
2022-10-05T07:08:32.717Z,77.94
2022-10-05T07:11:09.357Z,77.66
2022-10-05T07:14:03.716Z,76.82
2022-10-05T07:16:41.656Z,77.08
2022-10-05T07:19:38.729Z,76.09
2022-10-05T07:22:47.921Z,76.15
2022-10-05T07:25:25.034Z,77.11
2022-10-05T07:27:59.048Z,77.75
2022-10-05T07:30:29.759Z,77.46
2022-10-05T07:33:02.562Z,77.24
2022-10-05T07:35:59.805Z,76.58
2022-10-05T07:38:33.209Z,76.42
2022-10-05T07:41:07.567Z,75.72
2022-10-05T07:44:01.584Z,75.79
2022-10-05T07:46:50.582Z,74.75
2022-10-05T07:49:26.965Z,74.69
2022-10-05T07:52:00.030Z,74.92
2022-10-05T07:54:37.993Z,74.36
2022-10-05T07:57:13.542Z,73.97
2022-10-05T07:59:45.979Z,73.55
2022-10-05T08:02:27.207Z,74.16
2022-10-05T08:05:00.334Z,73.80
2022-10-05T08:07:29.695Z,72.97
2022-10-05T08:10:07.706Z,72.58
2022-10-05T08:12:42.884Z,73.13
2022-10-05T08:15:15.955Z,72.44
2022-10-05T08:17:50.699Z,71.32
2022-10-05T08:20:46.628Z,71.06
2022-10-05T08:23:25.521Z,70.97
2022-10-05T08:26:08.588Z,70.98
2022-10-05T08:28:41.675Z,69.90
2022-10-05T08:31:16.349Z,70.05
2022-10-05T08:33:55.728Z,70.16
2022-10-05T08:36:33.328Z,70.35
2022-10-05T08:39:04.175Z,70.20
2022-10-05T08:41:48.777Z,69.15
2022-10-05T08:45:05.949Z,69.06
2022-10-05T08:48:19.092Z,68.64
2022-10-05T08:51:12.910Z,69.52
2022-10-05T08:54:01.899Z,68.53
2022-10-05T08:56:38.323Z,68.07
2022-10-05T08:59:45.456Z,67.44
2022-10-05T09:02:25.942Z,67.56
2022-10-05T09:05:14.268Z,67.04
2022-10-05T09:08:17.638Z,67.57
2022-10-05T09:11:11.401Z,66.77
2022-10-05T09:14:29.089Z,66.36
2022-10-05T09:17:23.029Z,66.24
2022-10-05T09:20:10.797Z,66.23
2022-10-05T09:23:00.132Z,65.86
2022-10-05T09:25:54.878Z,65.64
2022-10-05T09:28:32.947Z,65.67
2022-10-05T09:31:31.615Z,64.75
2022-10-05T09:34:33.085Z,64.86
2022-10-05T09:37:46.594Z,65.76
2022-10-05T09:40:52.252Z,65.29
2022-10-05T09:43:47.738Z,65.12
2022-10-05T09:46:42.171Z,63.58
2022-10-05T09:49:44.318Z,64.06
2022-10-05T09:52:36.350Z,64.26
2022-10-05T09:55:23.532Z,64.12
2022-10-05T09:58:23.306Z,64.08
2022-10-05T10:01:33.302Z,63.71
2022-10-05T10:04:33.105Z,63.09
2022-10-05T10:07:37.832Z,63.22
2022-10-05T10:10:23.616Z,63.08
2022-10-05T10:13:03.116Z,63.01
2022-10-05T10:16:10.427Z,62.82
2022-10-05T10:19:22.011Z,62.88
2022-10-05T10:22:15.768Z,63.45
2022-10-05T10:24:56.641Z,64.05
2022-10-05T10:27:37.848Z,64.33
2022-10-05T10:30:27.601Z,64.32
2022-10-05T10:33:50.221Z,64.69
2022-10-05T10:36:21.883Z,65.03
2022-10-05T10:39:03.494Z,65.03
2022-10-05T10:41:57.321Z,64.34
2022-10-05T10:44:53.127Z,63.09
2022-10-05T10:47:48.013Z,62.16
2022-10-05T10:50:33.313Z,62.45
2022-10-05T10:53:10.672Z,61.76
2022-10-05T10:55:43.660Z,61.75
2022-10-05T10:58:45.012Z,61.82
2022-10-05T11:01:31.637Z,61.71
2022-10-05T11:04:31.321Z,61.66
2022-10-05T11:07:29.973Z,61.35
2022-10-05T11:10:16.358Z,61.19
2022-10-05T11:13:13.687Z,61.05
2022-10-05T11:16:10.416Z,60.80
2022-10-05T11:18:49.682Z,60.70
2022-10-05T11:21:38.418Z,60.36
2022-10-05T11:24:40.534Z,60.36
2022-10-05T11:27:40.482Z,60.63
2022-10-05T11:30:48.896Z,59.97
2022-10-05T11:33:52.377Z,59.50
2022-10-05T11:36:53.487Z,59.17
2022-10-05T11:39:38.908Z,59.42
2022-10-05T11:42:39.013Z,59.24
2022-10-05T11:45:21.817Z,59.39
2022-10-05T11:48:10.858Z,59.28
2022-10-05T11:50:53.329Z,59.37
2022-10-05T11:53:26.452Z,59.34
2022-10-05T11:56:04.231Z,58.55
2022-10-05T11:58:35.402Z,58.14
2022-10-05T12:01:08.200Z,58.02
2022-10-05T12:03:57.430Z,57.91
2022-10-05T12:07:01.232Z,58.40
2022-10-05T12:10:04.887Z,57.71
2022-10-05T12:12:38.426Z,57.41
2022-10-05T12:15:17.546Z,57.71
2022-10-05T12:17:51.500Z,57.46
2022-10-05T12:20:22.448Z,57.50
2022-10-05T12:22:58.103Z,57.95
2022-10-05T12:25:30.425Z,58.53
2022-10-05T12:28:04.133Z,59.19
2022-10-05T12:30:48.920Z,59.74
2022-10-05T12:33:21.472Z,60.07
2022-10-05T12:35:53.617Z,59.96
2022-10-05T12:38:28.554Z,60.31
2022-10-05T12:41:05.543Z,60.35
2022-10-05T12:43:39.844Z,60.14
2022-10-05T12:46:10.786Z,60.09
2022-10-05T12:48:57.962Z,59.69
2022-10-05T12:51:35.601Z,59.74
2022-10-05T12:54:13.488Z,59.59
2022-10-05T12:56:45.698Z,59.73
2022-10-05T12:59:22.361Z,59.48
2022-10-05T13:01:56.413Z,59.44
2022-10-05T13:04:33.341Z,59.50
2022-10-05T13:07:14.480Z,59.34
2022-10-05T13:09:53.523Z,59.54
2022-10-05T13:12:29.855Z,59.52
2022-10-05T13:15:03.922Z,59.89
2022-10-05T13:17:38.883Z,60.15
2022-10-05T13:20:14.040Z,60.26
2022-10-05T13:22:44.695Z,60.49
2022-10-05T13:25:27.478Z,60.79
2022-10-05T13:28:15.499Z,61.14
2022-10-05T13:30:53.076Z,61.14
2022-10-05T13:33:26.574Z,61.31
2022-10-05T13:35:59.061Z,61.51
2022-10-05T13:38:38.372Z,61.28
2022-10-05T13:41:17.886Z,61.10
2022-10-05T13:43:56.079Z,60.82
2022-10-05T13:46:30.090Z,61.26
2022-10-05T13:49:06.025Z,61.19
2022-10-05T13:51:42.440Z,61.12
2022-10-05T13:54:16.392Z,61.37
2022-10-05T13:56:48.813Z,61.33
2022-10-05T13:59:21.934Z,61.63
2022-10-05T14:01:54.139Z,61.81
2022-10-05T14:04:25.682Z,62.31
2022-10-05T14:06:54.180Z,62.27
2022-10-05T14:09:32.530Z,62.02
2022-10-05T14:12:22.422Z,62.44
2022-10-05T14:14:55.289Z,62.61
2022-10-05T14:17:42.240Z,62.39
2022-10-05T14:20:35.274Z,62.58
2022-10-05T14:23:08.111Z,62.76
2022-10-05T14:25:50.532Z,62.81
2022-10-05T14:28:29.598Z,62.73
2022-10-05T14:30:59.969Z,63.39
2022-10-05T14:33:29.793Z,63.54
2022-10-05T14:36:02.620Z,63.79
2022-10-05T14:38:36.408Z,64.17
2022-10-05T14:41:14.141Z,64.55
2022-10-05T14:43:53.004Z,64.57
2022-10-05T14:46:28.599Z,64.70
2022-10-05T14:49:26.866Z,64.89
2022-10-05T14:51:56.261Z,65.34
2022-10-05T14:54:47.642Z,65.61
2022-10-05T14:57:25.714Z,65.89
2022-10-05T15:00:09.157Z,66.21
2022-10-05T15:03:01.161Z,66.53
2022-10-05T15:05:36.813Z,66.84
2022-10-05T15:08:15.945Z,67.00
2022-10-05T15:10:50.931Z,67.44
2022-10-05T15:13:22.597Z,67.88
2022-10-05T15:15:54.771Z,67.58
2022-10-05T15:18:36.905Z,67.76
2022-10-05T15:21:27.697Z,67.98
2022-10-05T15:23:58.762Z,68.28
2022-10-05T15:26:36.660Z,68.34
2022-10-05T15:29:14.467Z,68.75
2022-10-05T15:31:50.720Z,68.82
2022-10-05T15:34:25.362Z,69.19
2022-10-05T15:36:57.334Z,69.66
2022-10-05T15:39:29.694Z,69.92
2022-10-05T15:42:01.011Z,69.96
2022-10-05T15:44:40.367Z,70.07
2022-10-05T15:47:14.056Z,70.13
2022-10-05T15:49:50.340Z,70.39
2022-10-05T15:52:24.593Z,70.75
2022-10-05T15:55:26.641Z,71.11
2022-10-05T15:58:02.772Z,71.67
2022-10-05T16:00:52.358Z,71.99
2022-10-05T16:03:27.450Z,72.07
2022-10-05T16:06:15.841Z,72.10
2022-10-05T16:09:01.867Z,72.40
2022-10-05T16:11:50.879Z,72.59
2022-10-05T16:14:28.404Z,73.05
2022-10-05T16:17:09.459Z,73.38
2022-10-05T16:19:46.855Z,73.23
2022-10-05T16:22:23.960Z,73.55
2022-10-05T16:25:07.053Z,73.58
2022-10-05T16:27:49.317Z,73.66
2022-10-05T16:30:21.461Z,73.83
2022-10-05T16:32:57.474Z,73.94
2022-10-05T16:35:33.288Z,74.09
2022-10-05T16:38:13.877Z,74.20
2022-10-05T16:40:45.968Z,74.39
2022-10-05T16:43:25.773Z,74.53
2022-10-05T16:46:02.433Z,74.47
2022-10-05T16:48:35.592Z,74.51
2022-10-05T16:51:21.654Z,74.62
2022-10-05T16:53:59.789Z,74.74
2022-10-05T16:56:31.886Z,75.04
2022-10-05T16:59:14.370Z,74.94
2022-10-05T17:01:52.470Z,75.00
2022-10-05T17:04:31.942Z,75.36
2022-10-05T17:07:16.874Z,75.39
2022-10-05T17:09:59.744Z,75.62
2022-10-05T17:12:45.635Z,75.61
2022-10-05T17:15:37.568Z,75.76
2022-10-05T17:18:46.258Z,76.23
2022-10-05T17:21:16.951Z,76.40
2022-10-05T17:23:55.602Z,76.21
2022-10-05T17:26:38.629Z,76.29
2022-10-05T17:29:17.135Z,76.50
2022-10-05T17:32:13.452Z,76.56
2022-10-05T17:35:18.243Z,76.90
2022-10-05T17:38:14.253Z,77.22
2022-10-05T17:41:05.569Z,77.29
2022-10-05T17:43:40.333Z,77.84
2022-10-05T17:46:12.513Z,77.75
2022-10-05T17:49:11.956Z,77.71
2022-10-05T17:52:21.639Z,77.56
2022-10-05T17:55:15.410Z,78.26
2022-10-05T17:57:46.718Z,78.27
2022-10-05T18:00:40.369Z,77.93
2022-10-05T18:03:35.842Z,78.34
2022-10-05T18:06:38.419Z,77.86
2022-10-05T18:09:22.106Z,77.97
2022-10-05T18:12:10.169Z,77.95
2022-10-05T18:15:00.435Z,77.79
2022-10-05T18:17:44.517Z,77.88
2022-10-05T18:20:30.207Z,77.82
2022-10-05T18:23:36.231Z,77.89
2022-10-05T18:26:16.010Z,77.96
2022-10-05T18:28:54.169Z,77.98
2022-10-05T18:31:32.406Z,78.08
2022-10-05T18:34:13.415Z,78.10
2022-10-05T18:37:02.558Z,77.98
2022-10-05T18:39:42.988Z,78.17
2022-10-05T18:42:22.762Z,78.15
2022-10-05T18:44:55.325Z,78.57
2022-10-05T18:47:32.003Z,78.31
2022-10-05T18:50:10.224Z,78.39
2022-10-05T18:52:50.086Z,78.65
2022-10-05T18:55:23.692Z,78.93
2022-10-05T18:58:19.605Z,78.48
2022-10-05T19:01:29.690Z,78.99
2022-10-05T19:04:15.861Z,79.21
2022-10-05T19:06:56.103Z,79.23
2022-10-05T19:09:51.036Z,79.14
2022-10-05T19:12:26.231Z,79.57
2022-10-05T19:15:06.525Z,79.16
2022-10-05T19:18:00.605Z,78.90
2022-10-05T19:20:36.061Z,79.66
2022-10-05T19:23:46.146Z,79.38
2022-10-05T19:26:17.285Z,79.87
2022-10-05T19:29:00.227Z,79.54
2022-10-05T19:31:34.398Z,79.55
2022-10-05T19:34:32.838Z,79.59
2022-10-05T19:37:13.423Z,79.97
2022-10-05T19:39:48.124Z,79.84
2022-10-05T19:42:50.961Z,79.81
2022-10-05T19:45:23.921Z,80.21
2022-10-05T19:48:04.246Z,79.93
2022-10-05T19:50:34.485Z,80.08
2022-10-05T19:53:13.520Z,80.15
2022-10-05T19:55:44.499Z,80.28
2022-10-05T19:58:26.480Z,79.91
2022-10-05T20:01:00.043Z,80.18
2022-10-05T20:03:30.433Z,80.25
2022-10-05T20:06:05.108Z,80.37
2022-10-05T20:08:49.393Z,80.51
2022-10-05T20:11:25.881Z,80.56
2022-10-05T20:14:18.977Z,80.40
2022-10-05T20:17:04.750Z,81.08
2022-10-05T20:19:55.938Z,81.26
2022-10-05T20:22:34.324Z,80.96
2022-10-05T20:25:06.360Z,81.62
2022-10-05T20:27:47.491Z,81.08
2022-10-05T20:30:18.397Z,81.57
2022-10-05T20:32:57.701Z,81.34
2022-10-05T20:35:29.596Z,81.63
2022-10-05T20:38:00.511Z,81.55
2022-10-05T20:40:32.104Z,81.31
2022-10-05T20:43:02.757Z,81.70
2022-10-05T20:45:32.364Z,81.42
2022-10-05T20:48:02.726Z,81.71
2022-10-05T20:50:36.896Z,81.81
2022-10-05T20:53:11.773Z,82.46
2022-10-05T20:55:43.962Z,82.23
2022-10-05T20:58:12.679Z,82.11
2022-10-05T21:00:59.815Z,82.64
2022-10-05T21:03:28.499Z,82.55
2022-10-05T21:05:59.975Z,82.44
2022-10-05T21:08:30.901Z,82.88
2022-10-05T21:11:09.029Z,82.57
2022-10-05T21:13:42.642Z,83.03
2022-10-05T21:16:28.201Z,83.03
2022-10-05T21:18:58.943Z,83.49
2022-10-05T21:21:28.641Z,83.58
2022-10-05T21:24:00.542Z,83.80
2022-10-05T21:26:33.718Z,83.60
2022-10-05T21:29:02.753Z,84.08
2022-10-05T21:31:31.840Z,84.02
2022-10-05T21:34:02.729Z,84.08
2022-10-05T21:36:35.014Z,84.48
2022-10-05T21:39:03.503Z,84.59
2022-10-05T21:41:34.128Z,84.16
2022-10-05T21:44:04.282Z,84.46
2022-10-05T21:46:37.977Z,84.81
2022-10-05T21:49:07.281Z,84.62
2022-10-05T21:51:35.585Z,84.87
2022-10-05T21:54:09.027Z,84.64
2022-10-05T21:56:40.700Z,84.64
2022-10-05T21:59:11.538Z,84.91
2022-10-05T22:01:43.309Z,85.38
2022-10-05T22:04:15.172Z,85.63
2022-10-05T22:06:43.707Z,85.71
2022-10-05T22:09:15.598Z,85.49
2022-10-05T22:11:49.265Z,85.70
2022-10-05T22:14:17.421Z,85.60
2022-10-05T22:16:56.152Z,86.35
2022-10-05T22:19:24.242Z,86.52
2022-10-05T22:21:52.775Z,87.21
2022-10-05T22:24:22.033Z,87.08
2022-10-05T22:26:53.134Z,86.71
2022-10-05T22:29:22.583Z,86.93
2022-10-05T22:31:53.249Z,87.36
2022-10-05T22:34:22.393Z,87.38
2022-10-05T22:36:50.838Z,87.85
2022-10-05T22:39:20.562Z,87.92
2022-10-05T22:41:51.013Z,88.20
2022-10-05T22:44:19.103Z,89.24
2022-10-05T22:46:49.622Z,88.42
2022-10-05T22:49:22.033Z,88.97
2022-10-05T22:51:51.081Z,88.98
2022-10-05T22:54:24.371Z,89.39
2022-10-05T22:56:57.959Z,89.96
2022-10-05T22:59:27.318Z,89.88
2022-10-05T23:01:55.753Z,89.79
2022-10-05T23:04:23.850Z,89.88
2022-10-05T23:06:51.947Z,89.95
2022-10-05T23:09:20.621Z,89.74
2022-10-05T23:11:52.172Z,89.72
2022-10-05T23:14:23.814Z,89.85
2022-10-05T23:16:52.142Z,90.37
2022-10-05T23:19:20.621Z,90.00
2022-10-05T23:21:50.511Z,89.84
2022-10-05T23:24:18.523Z,90.18
2022-10-05T23:26:47.890Z,90.14
2022-10-05T23:29:15.912Z,90.03
2022-10-05T23:31:46.476Z,89.90
2022-10-05T23:34:14.607Z,90.13
2022-10-05T23:36:45.178Z,91.08
2022-10-05T23:39:13.835Z,90.32
2022-10-05T23:41:43.962Z,90.67
2022-10-05T23:44:15.226Z,91.35
2022-10-05T23:46:52.821Z,92.03
2022-10-05T23:49:22.031Z,91.75
2022-10-05T23:51:52.040Z,91.20
2022-10-05T23:54:22.988Z,91.60
2022-10-05T23:56:53.211Z,91.47
2022-10-05T23:59:25.699Z,91.71
